logo
Search for airport 
image banner adimage banner adimage banner ad
image banner ad

LOAM - Wien/Meidling

Located in District Wien, Austria

ICAO - , IATA -

Data provided by Airmate  

General information

Coordinates: N48°10'25" E16°19'21"
Elevation is 736 feet MSL.
 
View others Airports in Vienna

Operational data

Special qualification required
Current time UTC:
Current local time:
Weather at : LOWW - Wien-Schwechat ( 20 km )
METAR: LOWW 130650Z 30011KT CAVOK 18/09 Q1029 NOSIG
TAF: TAF LOWW 130515Z 1306/1412 30010KT CAVOK TX26/1412Z TN10/1404Z BECMG 1317/1319 VRB03KT TEMPO 1408/1412 27020G30KT
View NOTAMs / SUP AIP / TFR affecting this airport [VIEW]
Communications frequencies: [VIEW]

Runways:

Airport contact information

Address: District Wien Austria

Satellite view of LOAM